Time;durP1;ratioP1;P1;durP2;ratioP2;P2;SDS_P1;SDS_P2;PMS_P1;PMS_P2;Temp;Humidity;BMP_temperature;BMP_pressure;BME280_temperature;BME280_humidity;BME280_pressure;Samples;Min_cycle;Max_cycle;Signal;HPM_P1;HPM_P2
2022/03/11 00:01:50;;;;;;;38.15;15.27;;;;;;;-0.70;63.12;95890.09;5048369;28;20419;-72
2022/03/11 00:04:16;;;;;;;35.30;14.38;;;;;;;-0.80;62.37;95894.78;5049296;28;20037;-72
2022/03/11 00:06:41;;;;;;;36.75;13.75;;;;;;;-0.69;62.34;95896.81;5030937;28;20519;-72
2022/03/11 00:09:07;;;;;;;36.58;14.57;;;;;;;-0.73;62.63;95901.59;5031825;28;20068;-70
2022/03/11 00:11:32;;;;;;;35.55;13.57;;;;;;;-0.68;61.99;95898.44;5035855;28;20046;-71
2022/03/11 00:13:58;;;;;;;31.58;13.82;;;;;;;-0.80;61.74;95905.13;5037829;28;20041;-70
2022/03/11 00:16:23;;;;;;;34.50;13.90;;;;;;;-0.88;62.04;95904.28;5038421;28;20102;-70
2022/03/11 00:18:50;;;;;;;34.92;13.25;;;;;;;-0.89;61.59;95897.50;5032696;28;20033;-70
2022/03/11 00:21:15;;;;;;;33.33;12.80;;;;;;;-1.01;62.66;95891.22;5028839;28;20132;-71
2022/03/11 00:23:44;;;;;;;28.20;13.10;;;;;;;-1.08;62.20;95886.03;5030569;28;20053;-70
2022/03/11 00:26:11;;;;;;;34.50;12.48;;;;;;;-0.89;60.82;95889.75;5036977;28;20053;-70
2022/03/11 00:28:37;;;;;;;29.45;12.38;;;;;;;-1.13;60.75;95885.00;5042369;28;20042;-70
2022/03/11 00:31:04;;;;;;;28.88;12.25;;;;;;;-1.19;60.80;95890.88;5044642;28;20044;-70
2022/03/11 00:33:30;;;;;;;31.13;11.65;;;;;;;-1.32;61.24;95892.38;5063349;28;20048;-70
2022/03/11 00:35:55;;;;;;;27.02;11.32;;;;;;;-1.42;61.06;95886.72;5069658;28;20045;-70
2022/03/11 00:38:21;;;;;;;29.10;11.07;;;;;;;-1.35;60.93;95886.78;5049152;28;20071;-71
2022/03/11 00:40:46;;;;;;;26.70;11.05;;;;;;;-1.27;60.00;95887.44;5043359;28;20076;-70
2022/03/11 00:43:12;;;;;;;23.77;9.82;;;;;;;-1.35;60.23;95884.19;5045094;28;20049;-70
2022/03/11 00:45:37;;;;;;;30.33;10.57;;;;;;;-1.34;59.88;95884.00;5046424;28;20499;-70
2022/03/11 00:48:03;;;;;;;27.15;10.82;;;;;;;-1.54;60.46;95888.19;5052981;28;20049;-69
2022/03/11 00:50:29;;;;;;;23.58;9.88;;;;;;;-1.46;60.25;95875.16;5046664;28;20041;-69
2022/03/11 00:52:54;;;;;;;27.17;10.15;;;;;;;-1.59;59.69;95886.94;5041149;28;20548;-69
2022/03/11 00:55:20;;;;;;;22.80;9.77;;;;;;;-1.55;59.40;95881.41;5052239;28;20059;-70
2022/03/11 00:57:45;;;;;;;22.88;9.43;;;;;;;-1.54;59.30;95873.50;5034898;28;20037;-69
2022/03/11 01:00:11;;;;;;;22.35;9.68;;;;;;;-1.65;59.13;95877.38;5053882;28;20116;-70
2022/03/11 01:02:39;;;;;;;20.02;8.55;;;;;;;-1.54;58.60;95872.69;5045565;28;20049;-69
2022/03/11 01:05:05;;;;;;;30.30;10.02;;;;;;;-1.76;58.82;95875.25;5046621;28;20113;-70
2022/03/11 01:07:31;;;;;;;23.58;8.68;;;;;;;-1.71;58.27;95872.94;5036349;28;20116;-69
2022/03/11 01:09:57;;;;;;;25.40;8.73;;;;;;;-1.49;57.33;95865.22;5050115;28;20045;-69
2022/03/11 01:12:22;;;;;;;25.05;9.13;;;;;;;-1.59;56.75;95866.31;5029106;28;20054;-69
2022/03/11 01:14:48;;;;;;;18.88;7.63;;;;;;;-1.57;57.23;95861.78;5041727;28;20235;-69
2022/03/11 01:17:14;;;;;;;22.10;8.23;;;;;;;-1.72;56.67;95866.19;5038404;28;20037;-70
2022/03/11 01:19:39;;;;;;;22.23;7.90;;;;;;;-1.77;57.33;95868.50;5043928;28;20470;-69
2022/03/11 01:22:05;;;;;;;19.25;8.18;;;;;;;-1.86;56.60;95864.44;5048491;28;20052;-69
2022/03/11 01:24:32;;;;;;;16.67;7.47;;;;;;;-1.94;56.70;95858.41;5029952;28;20068;-70
2022/03/11 01:26:58;;;;;;;19.85;7.55;;;;;;;-1.96;55.77;95860.34;5029933;28;20041;-69
2022/03/11 01:29:24;;;;;;;18.90;6.47;;;;;;;-1.95;56.64;95853.44;5044246;28;20060;-69
2022/03/11 01:31:53;;;;;;;24.20;7.53;;;;;;;-1.90;55.69;95853.66;5044332;28;20120;-70
2022/03/11 01:34:20;;;;;;;15.02;6.07;;;;;;;-1.80;55.19;95855.97;5039414;28;20036;-71
2022/03/11 01:36:46;;;;;;;16.98;7.15;;;;;;;-1.99;55.75;95845.25;5038907;28;20503;-71
2022/03/11 01:39:12;;;;;;;16.73;6.18;;;;;;;-2.01;55.28;95847.22;5038844;28;20553;-71
2022/03/11 01:41:38;;;;;;;17.05;6.13;;;;;;;-2.03;55.13;95844.00;5032561;28;20491;-71
2022/03/11 01:44:06;;;;;;;19.50;6.80;;;;;;;-1.74;54.79;95850.06;5048123;28;20056;-71
2022/03/11 01:46:32;;;;;;;18.58;6.90;;;;;;;-2.00;55.23;95843.63;5040376;28;20510;-71
2022/03/11 01:48:59;;;;;;;18.95;6.40;;;;;;;-1.98;54.78;95836.53;5036623;28;20483;-71
2022/03/11 01:51:27;;;;;;;16.25;5.60;;;;;;;-1.90;54.78;95848.50;5053421;28;20847;-72
2022/03/11 01:53:53;;;;;;;16.25;6.25;;;;;;;-1.92;54.14;95846.13;5042972;28;20461;-71
2022/03/11 01:56:21;;;;;;;13.63;5.95;;;;;;;-2.00;54.48;95838.47;5049939;28;20444;-71
2022/03/11 01:58:49;;;;;;;12.98;5.60;;;;;;;-1.93;54.19;95829.03;5048683;28;20083;-71
2022/03/11 02:01:15;;;;;;;16.63;6.55;;;;;;;-2.19;53.45;95826.19;5031129;28;20705;-71
2022/03/11 02:03:41;;;;;;;13.20;5.80;;;;;;;-2.01;53.85;95831.75;5039893;28;20050;-71
2022/03/11 02:06:07;;;;;;;15.50;5.75;;;;;;;-2.02;53.91;95830.16;5051923;28;20049;-71
2022/03/11 02:08:33;;;;;;;13.57;5.60;;;;;;;-1.98;52.34;95821.06;5046551;28;20066;-71
2022/03/11 02:10:59;;;;;;;12.43;5.63;;;;;;;-2.18;53.53;95823.44;5050791;28;20041;-71
2022/03/11 02:13:25;;;;;;;16.92;5.95;;;;;;;-2.21;53.49;95823.78;5050381;28;20044;-71
2022/03/11 02:15:51;;;;;;;17.27;5.35;;;;;;;-2.32;53.96;95812.16;5036872;28;20048;-71
2022/03/11 02:18:16;;;;;;;10.90;5.22;;;;;;;-2.30;53.60;95828.25;5044796;28;20033;-71
2022/03/11 02:20:42;;;;;;;12.55;5.57;;;;;;;-2.21;53.68;95828.13;5043910;28;20049;-71
2022/03/11 02:23:13;;;;;;;12.63;5.60;;;;;;;-2.40;54.11;95832.88;5048572;28;20048;-71
2022/03/11 02:25:40;;;;;;;13.68;5.68;;;;;;;-2.45;53.59;95835.19;5051358;28;20506;-71
2022/03/11 02:28:05;;;;;;;17.73;6.10;;;;;;;-2.53;54.30;95824.97;5042265;28;20037;-72
2022/03/11 02:30:31;;;;;;;18.05;6.53;;;;;;;-2.61;54.45;95831.81;5051682;28;20406;-71
2022/03/11 02:32:56;;;;;;;13.43;5.25;;;;;;;-2.53;54.66;95833.53;5046159;28;20037;-71
2022/03/11 02:35:22;;;;;;;16.90;6.25;;;;;;;-2.58;54.18;95822.16;5039479;28;20659;-71
2022/03/11 02:37:47;;;;;;;15.68;5.22;;;;;;;-2.65;54.50;95829.78;5033222;28;20128;-71
2022/03/11 02:40:13;;;;;;;14.32;5.90;;;;;;;-2.72;54.24;95819.38;5044248;28;20102;-71
2022/03/11 02:42:38;;;;;;;15.88;5.85;;;;;;;-2.64;53.63;95829.63;5032459;28;20052;-71
2022/03/11 02:45:05;;;;;;;11.38;4.85;;;;;;;-2.56;54.37;95827.91;5051391;28;20465;-71
2022/03/11 02:47:31;;;;;;;9.50;4.10;;;;;;;-2.46;53.39;95828.44;5049827;28;20079;-70
2022/03/11 02:49:57;;;;;;;16.35;5.13;;;;;;;-2.66;53.81;95818.69;5049866;28;20524;-70
2022/03/11 02:52:23;;;;;;;14.48;5.28;;;;;;;-2.72;54.12;95824.53;5048012;28;20114;-70
2022/03/11 02:54:49;;;;;;;14.15;6.07;;;;;;;-2.75;53.95;95819.75;5044187;28;20146;-70
2022/03/11 02:57:18;;;;;;;14.85;5.15;;;;;;;-2.85;54.25;95824.38;5046672;28;20852;-70
2022/03/11 02:59:44;;;;;;;13.35;5.45;;;;;;;-2.67;54.38;95816.28;5060860;28;20042;-70
2022/03/11 03:02:10;;;;;;;15.43;5.80;;;;;;;-2.83;54.57;95817.25;5040611;28;20403;-70
2022/03/11 03:04:35;;;;;;;11.48;5.30;;;;;;;-2.97;54.75;95811.94;5038148;28;20042;-70
2022/03/11 03:07:01;;;;;;;15.73;6.38;;;;;;;-2.86;55.14;95812.47;5045491;28;20037;-70
2022/03/11 03:09:27;;;;;;;14.50;5.80;;;;;;;-2.78;54.54;95807.22;5050673;28;20063;-70
2022/03/11 03:11:52;;;;;;;13.43;5.25;;;;;;;-2.86;54.91;95815.03;5041860;28;20045;-70
2022/03/11 03:14:19;;;;;;;11.85;5.50;;;;;;;-2.72;55.20;95811.66;5046015;28;20089;-70
2022/03/11 03:16:44;;;;;;;14.25;5.45;;;;;;;-2.58;54.02;95806.69;5048340;28;20041;-70
2022/03/11 03:19:10;;;;;;;13.75;5.70;;;;;;;-2.66;54.67;95808.38;5046198;28;20048;-71
2022/03/11 03:21:36;;;;;;;15.82;5.68;;;;;;;-2.74;54.39;95813.63;5052069;28;20049;-71
2022/03/11 03:24:01;;;;;;;15.68;6.03;;;;;;;-2.86;54.73;95805.56;5067003;28;20045;-71
2022/03/11 03:26:27;;;;;;;17.58;6.13;;;;;;;-2.94;55.71;95809.97;5043246;28;20040;-71
2022/03/11 03:28:53;;;;;;;12.43;5.75;;;;;;;-2.88;55.75;95810.06;5074338;28;20509;-71
2022/03/11 03:31:21;;;;;;;13.73;5.43;;;;;;;-2.99;56.45;95811.31;5050782;28;20449;-71
2022/03/11 03:33:48;;;;;;;15.05;5.63;;;;;;;-3.08;56.43;95814.94;5045202;28;20041;-71
2022/03/11 03:36:14;;;;;;;16.98;6.03;;;;;;;-3.15;56.17;95803.72;5041767;28;20430;-71
2022/03/11 03:38:40;;;;;;;16.73;5.78;;;;;;;-3.19;56.93;95802.47;5053462;28;20045;-71
2022/03/11 03:41:05;;;;;;;13.50;5.72;;;;;;;-3.08;56.41;95803.84;5047933;28;20044;-71
2022/03/11 03:43:31;;;;;;;13.98;5.72;;;;;;;-3.20;56.84;95800.91;5030983;28;20098;-71
2022/03/11 03:45:56;;;;;;;14.98;6.35;;;;;;;-3.25;57.17;95798.84;5047912;28;20048;-71
2022/03/11 03:48:22;;;;;;;17.98;6.28;;;;;;;-3.08;56.63;95789.19;5047295;28;20041;-71
2022/03/11 03:50:48;;;;;;;16.95;5.78;;;;;;;-3.16;56.03;95787.50;5049709;28;20045;-71
2022/03/11 03:53:14;;;;;;;18.23;6.70;;;;;;;-3.24;57.04;95794.50;5042486;28;20143;-71
2022/03/11 03:55:39;;;;;;;15.48;6.63;;;;;;;-3.21;57.82;95789.00;5041664;28;20037;-71
2022/03/11 03:58:05;;;;;;;15.65;6.10;;;;;;;-3.32;57.49;95788.47;5039391;28;20041;-71
2022/03/11 04:00:30;;;;;;;14.77;6.10;;;;;;;-3.28;57.70;95786.31;5035953;28;20041;-71
2022/03/11 04:02:56;;;;;;;15.30;6.18;;;;;;;-3.36;57.29;95789.78;5035617;28;20124;-71
2022/03/11 04:05:21;;;;;;;15.55;5.97;;;;;;;-3.20;57.24;95791.41;5048739;28;20041;-71
2022/03/11 04:07:48;;;;;;;13.18;5.72;;;;;;;-3.15;57.10;95793.44;5043528;28;20051;-70
2022/03/11 04:10:14;;;;;;;14.82;6.03;;;;;;;-3.37;57.17;95790.75;5055466;28;20094;-70
2022/03/11 04:12:41;;;;;;;22.27;6.72;;;;;;;-3.40;58.06;95791.09;5041120;28;20033;-70
2022/03/11 04:15:08;;;;;;;13.27;5.63;;;;;;;-3.46;57.84;95791.81;5032504;28;20075;-71
2022/03/11 04:17:33;;;;;;;18.67;6.30;;;;;;;-3.46;58.35;95786.66;5048575;28;20502;-71
2022/03/11 04:20:02;;;;;;;17.15;6.50;;;;;;;-3.57;58.69;95794.78;5049383;28;20052;-70
2022/03/11 04:22:28;;;;;;;16.27;6.32;;;;;;;-3.55;58.33;95797.97;5050083;28;20103;-71
2022/03/11 04:24:53;;;;;;;16.05;6.78;;;;;;;-3.39;57.91;95808.16;5041336;28;20034;-71
2022/03/11 04:27:19;;;;;;;16.73;6.32;;;;;;;-3.47;57.92;95805.63;5036109;28;20112;-71
2022/03/11 04:29:44;;;;;;;17.50;6.72;;;;;;;-3.43;58.49;95806.91;5041603;28;20051;-71
2022/03/11 04:32:11;;;;;;;17.15;6.50;;;;;;;-3.43;58.48;95806.06;5043378;28;20056;-71
2022/03/11 04:34:36;;;;;;;19.42;6.80;;;;;;;-3.33;58.32;95802.28;5041266;28;20062;-70
2022/03/11 04:37:03;;;;;;;17.98;7.15;;;;;;;-3.58;59.26;95806.03;5043684;28;20473;-70
2022/03/11 04:39:29;;;;;;;15.88;6.45;;;;;;;-3.59;59.20;95796.72;5043956;28;20044;-70
2022/03/11 04:41:55;;;;;;;16.13;6.47;;;;;;;-3.62;59.50;95791.94;5044039;28;20045;-71
2022/03/11 04:44:21;;;;;;;18.13;6.78;;;;;;;-3.71;60.27;95794.56;5035209;28;20433;-71
2022/03/11 04:46:47;;;;;;;15.10;6.82;;;;;;;-3.62;59.31;95807.34;5037744;28;20046;-70
2022/03/11 04:49:12;;;;;;;14.40;5.60;;;;;;;-3.57;59.75;95799.94;5048139;28;20045;-69
2022/03/11 04:51:38;;;;;;;16.10;6.55;;;;;;;-3.62;59.96;95797.06;5054318;28;20052;-70
2022/03/11 04:54:06;;;;;;;16.10;6.72;;;;;;;-3.61;59.74;95793.53;5049573;28;20040;-70
2022/03/11 04:56:32;;;;;;;18.23;6.85;;;;;;;-3.77;60.30;95794.47;5047646;28;20041;-70
2022/03/11 04:58:58;;;;;;;20.50;7.05;;;;;;;-3.79;60.80;95792.06;5049184;28;20502;-70
2022/03/11 05:01:24;;;;;;;18.42;6.28;;;;;;;-3.85;60.82;95782.44;5042689;28;20034;-70
2022/03/11 05:03:50;;;;;;;27.52;7.22;;;;;;;-3.85;60.20;95782.44;5040845;28;20538;-70
2022/03/11 05:06:16;;;;;;;19.27;8.00;;;;;;;-3.72;60.25;95782.69;5068737;28;20037;-70
2022/03/11 05:08:42;;;;;;;18.65;7.38;;;;;;;-3.58;60.73;95782.88;5047797;28;20056;-70
2022/03/11 05:11:08;;;;;;;18.13;6.47;;;;;;;-3.43;60.02;95776.00;5084410;28;20037;-71
2022/03/11 05:13:34;;;;;;;22.95;7.10;;;;;;;-3.68;60.66;95777.97;5047780;28;20529;-69
2022/03/11 05:16:00;;;;;;;23.55;6.63;;;;;;;-3.67;61.02;95780.38;5053104;28;20052;-70
2022/03/11 05:18:25;;;;;;;17.17;7.05;;;;;;;-3.78;61.45;95772.28;5050955;28;20514;-70
2022/03/11 05:20:51;;;;;;;19.67;7.70;;;;;;;-3.88;60.93;95767.38;5055516;28;20041;-69
2022/03/11 05:23:17;;;;;;;22.23;6.97;;;;;;;-3.78;61.86;95767.94;5044420;28;20045;-69
2022/03/11 05:25:43;;;;;;;16.95;7.05;;;;;;;-3.93;61.26;95767.88;5043241;28;20407;-69
2022/03/11 05:28:09;;;;;;;19.13;7.20;;;;;;;-3.94;62.26;95765.50;5036453;28;20037;-69
2022/03/11 05:30:36;;;;;;;17.65;7.38;;;;;;;-4.02;62.51;95767.16;5055008;28;20517;-69
2022/03/11 05:33:03;;;;;;;19.05;6.85;;;;;;;-4.17;63.88;95763.72;5038654;28;20044;-69
2022/03/11 05:35:28;;;;;;;27.10;7.45;;;;;;;-4.10;63.34;95769.75;5047953;28;20490;-69
2022/03/11 05:37:54;;;;;;;16.35;6.43;;;;;;;-4.20;63.56;95769.19;5047694;28;20041;-70
2022/03/11 05:40:20;;;;;;;20.15;6.63;;;;;;;-4.24;63.75;95773.88;5055043;28;20042;-69
2022/03/11 05:42:45;;;;;;;17.08;7.65;;;;;;;-4.20;63.69;95769.19;5034659;28;20044;-69
2022/03/11 05:45:11;;;;;;;17.23;7.70;;;;;;;-4.14;63.06;95773.66;5036850;28;20038;-69
2022/03/11 05:47:37;;;;;;;19.08;6.93;;;;;;;-4.14;63.69;95773.66;5038736;28;20817;-70
2022/03/11 05:50:03;;;;;;;18.83;7.03;;;;;;;-4.06;63.34;95765.88;5050322;28;20487;-70
2022/03/11 05:52:29;;;;;;;16.13;6.82;;;;;;;-4.24;63.67;95773.06;5047971;28;20044;-70
2022/03/11 05:54:55;;;;;;;18.08;7.82;;;;;;;-4.29;63.80;95770.22;5040546;28;20116;-70
2022/03/11 05:57:21;;;;;;;20.50;7.38;;;;;;;-4.20;63.78;95769.19;5038065;28;20048;-70
2022/03/11 05:59:46;;;;;;;17.55;7.28;;;;;;;-4.25;63.64;95776.59;5059405;28;20102;-70
2022/03/11 06:02:12;;;;;;;18.30;7.40;;;;;;;-4.12;63.45;95774.28;5046453;28;20050;-70
2022/03/11 06:04:37;;;;;;;22.83;7.63;;;;;;;-4.13;63.69;95789.88;5045872;28;20056;-70
2022/03/11 06:07:04;;;;;;;23.00;7.00;;;;;;;-4.11;63.74;95783.59;5044934;28;20037;-70
2022/03/11 06:09:30;;;;;;;28.15;7.72;;;;;;;-4.16;64.01;95785.09;5039444;28;20507;-70
2022/03/11 06:11:56;;;;;;;33.20;8.75;;;;;;;-4.20;64.35;95789.75;5045151;28;20044;-70
2022/03/11 06:14:22;;;;;;;21.50;7.85;;;;;;;-4.15;64.31;95791.81;5049196;28;20032;-70
2022/03/11 06:16:47;;;;;;;36.50;8.02;;;;;;;-4.13;64.43;95789.88;5046791;28;20053;-70
2022/03/11 06:19:13;;;;;;;33.72;7.97;;;;;;;-4.15;64.37;95792.63;5047383;28;20065;-70
2022/03/11 06:21:39;;;;;;;26.83;8.18;;;;;;;-4.13;64.31;95795.81;5046841;28;20498;-70
2022/03/11 06:24:04;;;;;;;16.05;6.63;;;;;;;-4.12;63.87;95797.41;5055236;28;20521;-70
2022/03/11 06:26:30;;;;;;;17.55;7.05;;;;;;;-4.07;64.44;95805.41;5046059;28;20045;-72
2022/03/11 06:28:56;;;;;;;16.13;7.10;;;;;;;-3.95;64.55;95805.03;5035519;28;20537;-70
2022/03/11 06:31:21;;;;;;;18.15;6.90;;;;;;;-3.91;64.01;95806.28;5047976;28;20135;-69
2022/03/11 06:33:47;;;;;;;18.05;7.10;;;;;;;-3.82;63.94;95810.41;5048176;28;20045;-70
2022/03/11 06:36:12;;;;;;;19.48;7.45;;;;;;;-3.87;63.66;95815.25;5034140;28;20246;-70
2022/03/11 06:38:38;;;;;;;27.88;8.45;;;;;;;-3.86;63.53;95811.72;5036237;28;20060;-70
2022/03/11 06:41:04;;;;;;;29.70;7.68;;;;;;;-3.80;63.29;95816.19;5038494;28;20095;-70
2022/03/11 06:43:29;;;;;;;22.77;7.95;;;;;;;-3.75;63.59;95813.91;5043053;28;20473;-70
2022/03/11 06:45:55;;;;;;;31.77;7.18;;;;;;;-3.74;63.98;95815.47;5048349;28;20053;-69
2022/03/11 06:48:21;;;;;;;20.48;7.53;;;;;;;-3.56;63.67;95811.81;5041897;28;20082;-72
2022/03/11 06:50:48;;;;;;;27.42;8.38;;;;;;;-3.31;62.85;95820.91;5043409;28;20669;-71
2022/03/11 06:53:14;;;;;;;17.48;7.30;;;;;;;-3.20;62.87;95812.00;5048941;28;20033;-71
2022/03/11 06:55:40;;;;;;;20.65;7.82;;;;;;;-3.09;62.16;95821.03;5035677;28;20068;-70
2022/03/11 06:58:05;;;;;;;34.72;9.05;;;;;;;-3.28;63.02;95824.13;5049206;28;20048;-70
2022/03/11 07:00:31;;;;;;;22.40;7.95;;;;;;;-3.29;63.00;95822.53;5048372;28;20564;-69
2022/03/11 07:02:58;;;;;;;21.42;8.57;;;;;;;-3.23;63.06;95822.66;5050053;28;20049;-70
2022/03/11 07:05:24;;;;;;;21.98;8.57;;;;;;;-2.87;61.98;95826.34;5047343;28;20052;-70
2022/03/11 07:07:50;;;;;;;23.02;8.52;;;;;;;-3.04;62.43;95826.47;5039100;28;20037;-70
2022/03/11 07:10:16;;;;;;;18.60;7.72;;;;;;;-3.11;62.74;95825.59;5042924;28;20392;-70
2022/03/11 07:12:41;;;;;;;22.80;8.65;;;;;;;-3.12;63.38;95834.28;5044386;28;20036;-70
2022/03/11 07:15:08;;;;;;;17.88;7.32;;;;;;;-2.98;62.46;95830.13;5040384;28;20094;-70
2022/03/11 07:17:34;;;;;;;24.90;7.13;;;;;;;-2.72;61.90;95834.06;5044961;28;20048;-70
2022/03/11 07:20:00;;;;;;;20.70;7.88;;;;;;;-2.77;62.19;95832.03;5040957;28;20113;-70
2022/03/11 07:22:25;;;;;;;22.10;8.32;;;;;;;-2.58;62.17;95835.03;5049049;28;20045;-70
2022/03/11 07:24:51;;;;;;;29.23;8.15;;;;;;;-2.70;62.10;95838.06;5047728;28;20033;-70
2022/03/11 07:27:17;;;;;;;24.30;7.78;;;;;;;-2.72;62.59;95840.00;5047360;28;20037;-69
2022/03/11 07:29:42;;;;;;;28.52;8.07;;;;;;;-2.53;62.61;95843.00;5047208;28;20037;-71
2022/03/11 07:32:10;;;;;;;18.38;7.47;;;;;;;-2.45;61.61;95850.66;5041845;28;20041;-69
2022/03/11 07:34:35;;;;;;;19.25;8.27;;;;;;;-2.52;61.73;95844.63;5041727;28;20075;-75
2022/03/11 07:37:01;;;;;;;19.92;8.00;;;;;;;-2.51;62.15;95847.03;5035231;28;20552;-71
2022/03/11 07:39:27;;;;;;;17.63;8.13;;;;;;;-2.27;62.20;95843.34;5039341;28;20083;-69
2022/03/11 07:41:52;;;;;;;25.27;7.95;;;;;;;-2.30;62.03;95845.47;5049667;28;20079;-69
2022/03/11 07:44:18;;;;;;;25.27;8.43;;;;;;;-2.11;61.33;95851.88;5045084;28;20058;-69
2022/03/11 07:46:44;;;;;;;15.90;7.47;;;;;;;-1.98;61.39;95846.06;5041317;28;20410;-70
2022/03/11 07:49:10;;;;;;;22.98;8.73;;;;;;;-2.17;61.38;95843.09;5048157;28;20095;-70
2022/03/11 07:51:37;;;;;;;23.33;8.75;;;;;;;-2.12;61.80;95850.28;5048178;28;20045;-70
2022/03/11 07:54:03;;;;;;;24.88;8.75;;;;;;;-2.01;62.00;95847.22;5048625;28;20041;-70
2022/03/11 07:56:28;;;;;;;21.95;9.45;;;;;;;-1.72;61.13;95845.53;5039999;28;20560;-69
2022/03/11 07:58:56;;;;;;;24.33;10.02;;;;;;;-1.90;61.85;95842.56;5043669;28;20048;-69
2022/03/11 08:01:21;;;;;;;25.58;9.70;;;;;;;-1.64;60.76;95840.25;5057318;28;20434;-70
2022/03/11 08:03:47;;;;;;;21.65;8.55;;;;;;;-1.57;60.87;95843.72;5051397;28;20147;-70
2022/03/11 08:06:13;;;;;;;22.50;8.52;;;;;;;-1.48;60.05;95833.22;5048674;28;20048;-70
2022/03/11 08:08:39;;;;;;;20.92;8.23;;;;;;;-1.39;60.70;95839.88;5052766;28;20044;-70
2022/03/11 08:11:06;;;;;;;25.27;9.23;;;;;;;-1.51;60.73;95841.34;5048040;28;20041;-70
2022/03/11 08:13:33;;;;;;;24.90;8.85;;;;;;;-1.38;60.61;95836.28;5043592;28;20090;-70
2022/03/11 08:16:01;;;;;;;28.42;8.98;;;;;;;-1.27;60.16;95838.38;5030124;28;20107;-70
2022/03/11 08:18:27;;;;;;;21.55;9.05;;;;;;;-1.16;60.12;95838.88;5041805;28;20041;-70
2022/03/11 08:20:52;;;;;;;25.55;9.32;;;;;;;-0.68;57.91;95830.44;5041358;28;20150;-74
2022/03/11 08:23:18;;;;;;;22.23;9.38;;;;;;;-0.41;58.09;95833.97;5046077;28;20099;-73
2022/03/11 08:25:45;;;;;;;20.77;9.43;;;;;;;-0.71;58.41;95834.19;5051541;28;20383;-73
2022/03/11 08:28:12;;;;;;;23.45;9.52;;;;;;;-0.54;58.33;95832.91;5050512;28;20048;-72
2022/03/11 08:30:37;;;;;;;19.30;8.50;;;;;;;-0.39;58.09;95829.38;5037889;28;20520;-69
2022/03/11 08:33:04;;;;;;;24.40;9.52;;;;;;;-0.29;58.02;95827.25;5046571;28;20115;-69
2022/03/11 08:35:30;;;;;;;25.83;9.00;;;;;;;-0.03;57.40;95817.97;5053672;28;20111;-70
2022/03/11 08:37:56;;;;;;;20.63;8.85;;;;;;;-0.19;56.75;95827.69;5052134;28;20086;-71
2022/03/11 08:40:23;;;;;;;21.75;9.73;;;;;;;0.02;57.66;95815.63;5047944;28;20057;-71
2022/03/11 08:42:51;;;;;;;22.88;9.15;;;;;;;-0.08;57.15;95820.38;5041420;28;20041;-71
2022/03/11 08:45:20;;;;;;;21.60;9.10;;;;;;;-0.28;57.60;95815.13;5047148;28;20041;-72
2022/03/11 08:47:45;;;;;;;20.13;9.23;;;;;;;-0.31;57.78;95805.94;5044208;28;20411;-73
2022/03/11 08:50:11;;;;;;;20.38;9.10;;;;;;;-0.23;58.48;95813.56;5037838;28;20036;-74
2022/03/11 08:52:37;;;;;;;19.67;8.40;;;;;;;0.48;56.72;95804.53;5046220;28;20044;-74
2022/03/11 08:55:03;;;;;;;21.38;8.95;;;;;;;0.23;56.76;95800.91;5054972;28;20049;-74
2022/03/11 08:57:29;;;;;;;25.25;8.68;;;;;;;0.47;56.53;95802.94;5049008;28;20124;-73
2022/03/11 08:59:54;;;;;;;23.00;9.77;;;;;;;0.30;56.85;95796.53;5045304;28;20048;-72
2022/03/11 09:02:23;;;;;;;23.02;8.90;;;;;;;0.50;56.42;95802.56;5055199;28;20052;-72
2022/03/11 09:04:49;;;;;;;25.70;9.00;;;;;;;0.47;55.76;95796.97;5045484;28;20384;-72
2022/03/11 09:07:15;;;;;;;20.05;9.00;;;;;;;0.81;55.52;95792.59;5059911;28;20043;-72
2022/03/11 09:09:41;;;;;;;22.35;9.57;;;;;;;0.58;55.90;95787.81;5043705;28;20049;-72
2022/03/11 09:12:07;;;;;;;24.35;9.70;;;;;;;0.58;56.06;95785.22;5040330;28;20095;-72
2022/03/11 09:14:33;;;;;;;22.67;8.50;;;;;;;0.93;55.82;95785.00;5040305;28;20102;-73
2022/03/11 09:16:59;;;;;;;21.27;9.32;;;;;;;1.14;55.01;95784.78;5047131;28;20484;-73
2022/03/11 09:19:25;;;;;;;21.85;10.50;;;;;;;1.18;54.42;95788.56;5030100;28;20037;-73
2022/03/11 09:21:51;;;;;;;24.52;9.32;;;;;;;1.07;55.51;95791.75;5058403;28;20294;-75
2022/03/11 09:24:16;;;;;;;19.70;9.02;;;;;;;1.08;54.56;95785.59;5051731;28;20059;-72
2022/03/11 09:26:47;;;;;;;22.60;8.95;;;;;;;1.47;54.63;95785.69;5045091;28;20037;-72
2022/03/11 09:29:13;;;;;;;30.33;9.80;;;;;;;1.43;54.44;95780.09;5033330;28;20041;-71
2022/03/11 09:31:39;;;;;;;19.23;8.52;;;;;;;1.35;54.15;95777.72;5032283;28;20513;-71
2022/03/11 09:34:07;;;;;;;23.77;9.63;;;;;;;1.49;54.86;95783.69;5034539;28;20038;-71
2022/03/11 09:36:33;;;;;;;25.80;9.13;;;;;;;1.51;54.37;95777.28;5031705;28;20426;-71
2022/03/11 09:38:59;;;;;;;21.63;9.00;;;;;;;1.82;53.67;95783.53;5043846;28;20045;-71
2022/03/11 09:41:27;;;;;;;20.08;9.65;;;;;;;1.81;53.11;95781.16;5028563;28;20050;-71
2022/03/11 09:43:55;;;;;;;18.60;8.52;;;;;;;2.05;53.02;95790.03;5028051;28;20060;-72
2022/03/11 09:46:21;;;;;;;21.60;9.13;;;;;;;2.52;52.48;95793.13;5032697;28;20041;-71
2022/03/11 09:48:47;;;;;;;20.90;8.90;;;;;;;2.75;51.42;95791.75;5031616;28;20045;-72
2022/03/11 09:51:13;;;;;;;20.13;8.77;;;;;;;2.56;52.23;95786.50;5048855;28;20048;-71
2022/03/11 09:53:42;;;;;;;24.75;9.88;;;;;;;3.20;50.01;95788.94;5047836;28;20041;-70
2022/03/11 09:56:08;;;;;;;21.05;8.88;;;;;;;3.36;50.13;95781.59;5041828;28;20045;-70
2022/03/11 09:58:34;;;;;;;23.40;9.80;;;;;;;2.94;50.54;95780.41;5048261;28;20045;-72
2022/03/11 10:01:00;;;;;;;22.58;8.95;;;;;;;2.99;50.60;95778.94;5044184;28;20056;-71
2022/03/11 10:03:29;;;;;;;20.23;9.10;;;;;;;3.22;50.54;95781.72;5047151;28;20391;-71
2022/03/11 10:05:55;;;;;;;31.23;9.93;;;;;;;3.25;49.29;95776.09;5047164;28;20052;-71
2022/03/11 10:08:38;;;;;;;20.83;9.60;;;;;;;3.57;49.06;95773.34;5032025;28;20045;-71
2022/03/11 10:11:16;;;;;;;25.63;9.68;;;;;;;3.89;48.01;95780.94;5060033;28;20517;-71
2022/03/11 10:13:42;;;;;;;18.75;9.10;;;;;;;3.95;47.54;95769.69;5047969;28;20041;-71
2022/03/11 10:16:22;;;;;;;17.65;8.70;;;;;;;4.46;47.12;95758.94;5048893;28;20047;-71
2022/03/11 10:18:55;;;;;;;27.55;9.23;;;;;;;5.35;45.44;95763.25;5064956;28;20072;-71
2022/03/11 10:21:27;;;;;;;20.38;9.00;;;;;;;5.88;41.73;95770.03;5048265;28;20041;-71
2022/03/11 10:23:53;;;;;;;19.45;8.30;;;;;;;7.81;39.38;95757.75;5049398;28;20498;-71
2022/03/11 10:26:30;;;;;;;25.38;8.65;;;;;;;7.27;39.66;95755.81;5040130;28;20045;-71
2022/03/11 10:29:00;;;;;;;15.75;8.98;;;;;;;7.49;40.52;95755.03;5048621;28;20065;-71
2022/03/11 10:31:33;;;;;;;25.80;9.55;;;;;;;7.65;40.05;95756.78;5051546;28;20044;-71
2022/03/11 10:34:29;;;;;;;22.08;10.07;;;;;;;7.69;38.25;95763.13;5049373;28;20041;-71
2022/03/11 10:36:56;;;;;;;22.45;9.93;;;;;;;8.82;38.33;95760.78;5050372;28;20045;-71
2022/03/11 10:39:28;;;;;;;21.02;9.73;;;;;;;10.35;35.37;95743.34;5060310;28;20037;-71
2022/03/11 10:42:18;;;;;;;19.17;10.27;;;;;;;10.70;33.29;95749.66;5032794;28;20631;-71
2022/03/11 10:45:03;;;;;;;18.77;9.95;;;;;;;9.76;35.90;95747.91;5046196;28;20060;-73
2022/03/11 10:47:34;;;;;;;18.52;10.35;;;;;;;8.10;37.27;95745.22;5051280;28;20041;-73
2022/03/11 10:50:06;;;;;;;17.80;9.32;;;;;;;9.71;35.48;95753.13;5042340;28;20503;-75
2022/03/11 10:52:46;;;;;;;20.98;10.00;;;;;;;11.27;32.55;95748.53;5043544;28;20037;-76
2022/03/11 10:55:26;;;;;;;19.23;10.13;;;;;;;11.73;32.58;95738.91;5051944;28;20051;-71
2022/03/11 10:57:54;;;;;;;20.45;9.65;;;;;;;10.04;32.59;95748.50;5052328;28;20128;-70
2022/03/11 11:00:21;;;;;;;18.15;10.13;;;;;;;12.02;31.78;95751.44;5050254;28;20099;-69
2022/03/11 11:02:54;;;;;;;17.10;9.55;;;;;;;12.67;30.54;95739.94;5046676;28;20120;-70
2022/03/11 11:05:21;;;;;;;17.25;9.95;;;;;;;13.95;29.24;95741.28;5041501;28;20564;-71
2022/03/11 11:07:48;;;;;;;20.67;10.27;;;;;;;13.54;28.77;95736.47;5047522;28;20044;-69
2022/03/11 11:10:16;;;;;;;21.48;10.80;;;;;;;12.56;30.17;95739.25;5041623;28;20068;-72
2022/03/11 11:12:42;;;;;;;18.38;10.05;;;;;;;11.70;31.10;95739.44;5033101;28;20049;-74
2022/03/11 11:15:10;;;;;;;19.92;10.02;;;;;;;11.43;30.65;95735.31;5043472;28;20037;-70
2022/03/11 11:17:37;;;;;;;21.23;10.02;;;;;;;12.25;30.19;95719.09;5032508;28;20046;-70
2022/03/11 11:20:04;;;;;;;18.60;10.52;;;;;;;13.72;28.77;95721.72;5036915;28;20066;-70
2022/03/11 11:22:31;;;;;;;18.63;10.68;;;;;;;13.85;28.05;95725.53;5044550;28;20498;-70
2022/03/11 11:25:01;;;;;;;22.38;10.70;;;;;;;14.33;27.48;95720.09;5045070;28;20041;-70